createdAt,value
2018-04-18T00:00:31.260Z,99.90
2018-04-18T00:02:57.665Z,99.90
2018-04-18T00:05:24.065Z,99.90
2018-04-18T00:07:51.201Z,99.90
2018-04-18T00:10:17.602Z,99.90
2018-04-18T00:12:44.035Z,99.90
2018-04-18T00:15:10.417Z,99.90
2018-04-18T00:17:37.585Z,99.90
2018-04-18T00:20:04.014Z,99.90
2018-04-18T00:22:30.449Z,99.90
2018-04-18T00:24:56.862Z,99.90
2018-04-18T00:27:23.291Z,99.90
2018-04-18T00:29:50.450Z,99.90
2018-04-18T00:32:17.680Z,99.90
2018-04-18T00:37:18.268Z,99.90
2018-04-18T00:39:45.413Z,99.90
2018-04-18T00:42:11.859Z,99.90
2018-04-18T00:44:38.239Z,99.90
2018-04-18T00:47:04.645Z,99.90
2018-04-18T00:49:31.105Z,99.90
2018-04-18T00:51:57.464Z,99.90
2018-04-18T00:54:24.574Z,99.90
2018-04-18T00:56:50.976Z,99.90
2018-04-18T00:59:17.440Z,99.90
2018-04-18T01:01:43.834Z,99.90
2018-04-18T01:04:10.267Z,99.90
2018-04-18T01:06:36.718Z,99.90
2018-04-18T01:09:03.185Z,99.90
2018-04-18T01:11:29.609Z,99.90
2018-04-18T01:13:56.013Z,99.90
2018-04-18T01:16:22.425Z,99.90
2018-04-18T01:18:48.863Z,99.90
2018-04-18T01:21:15.253Z,99.90
2018-04-18T01:23:41.698Z,99.90
2018-04-18T01:26:08.896Z,99.90
2018-04-18T01:28:35.288Z,99.90
2018-04-18T01:31:02.420Z,99.90
2018-04-18T01:33:29.610Z,99.90
2018-04-18T01:35:56.719Z,99.90
2018-04-18T01:38:23.878Z,99.90
2018-04-18T01:40:51.047Z,99.90
2018-04-18T01:43:18.165Z,99.90
2018-04-18T01:45:44.576Z,99.90
2018-04-18T01:48:11.026Z,99.90
2018-04-18T01:50:37.464Z,99.90
2018-04-18T01:53:04.634Z,99.90
2018-04-18T01:55:31.795Z,99.90
2018-04-18T01:57:58.942Z,99.90
2018-04-18T02:00:26.099Z,99.90
2018-04-18T02:02:52.540Z,99.90
2018-04-18T02:05:19.706Z,99.90
2018-04-18T02:07:46.123Z,99.90
2018-04-18T02:10:12.549Z,99.90
2018-04-18T02:12:38.973Z,99.90
2018-04-18T02:15:06.139Z,99.90
2018-04-18T02:17:32.557Z,99.90
2018-04-18T02:19:58.969Z,99.90
2018-04-18T02:22:25.361Z,99.90
2018-04-18T02:24:51.808Z,99.90
2018-04-18T02:27:18.229Z,99.90
2018-04-18T02:29:44.657Z,99.90
2018-04-18T02:32:11.105Z,99.90
2018-04-18T02:34:37.527Z,99.90
2018-04-18T02:37:03.936Z,99.90
2018-04-18T02:39:30.369Z,99.90
2018-04-18T02:41:56.857Z,99.90
2018-04-18T02:44:23.245Z,99.90
2018-04-18T02:46:49.720Z,99.90
2018-04-18T02:49:16.211Z,99.90
2018-04-18T02:51:43.353Z,99.90
2018-04-18T02:54:09.940Z,99.90
2018-04-18T02:56:36.346Z,99.90
2018-04-18T02:59:03.634Z,99.90
2018-04-18T03:01:30.076Z,99.90
2018-04-18T03:03:57.256Z,99.90
2018-04-18T03:06:23.669Z,99.90
2018-04-18T03:08:50.846Z,99.90
2018-04-18T03:11:17.968Z,99.90
2018-04-18T03:13:44.397Z,99.90
2018-04-18T03:16:11.557Z,99.90
2018-04-18T03:18:37.933Z,99.90
2018-04-18T03:21:04.361Z,99.90
2018-04-18T03:23:30.774Z,99.90
2018-04-18T03:25:57.197Z,99.90
2018-04-18T03:28:23.638Z,99.90
2018-04-18T03:30:50.076Z,99.90
2018-04-18T03:33:16.473Z,99.90
2018-04-18T03:35:42.857Z,99.90
2018-04-18T03:38:09.304Z,99.90
2018-04-18T03:40:35.708Z,99.90
2018-04-18T03:43:02.096Z,99.90
2018-04-18T03:45:28.556Z,99.90
2018-04-18T03:47:54.996Z,99.90
2018-04-18T03:50:21.414Z,99.90
2018-04-18T03:52:48.613Z,99.90
2018-04-18T03:55:15.015Z,99.90
2018-04-18T03:57:41.417Z,99.90
2018-04-18T04:00:07.937Z,99.90
2018-04-18T04:02:34.424Z,99.90
2018-04-18T04:05:01.536Z,99.90
2018-04-18T04:07:28.000Z,99.90
2018-04-18T04:09:54.389Z,99.90
2018-04-18T04:12:20.777Z,99.90
2018-04-18T04:14:48.611Z,99.90
2018-04-18T04:17:28.809Z,99.90
2018-04-18T04:20:07.556Z,99.90
2018-04-18T04:22:46.208Z,99.90
2018-04-18T04:25:12.664Z,99.90
2018-04-18T04:27:39.159Z,99.90
2018-04-18T04:30:06.542Z,99.90
2018-04-18T04:32:33.038Z,99.90
2018-04-18T04:37:54.604Z,99.90
2018-04-18T04:40:20.992Z,99.90
2018-04-18T04:42:47.396Z,99.90
2018-04-18T04:45:13.828Z,99.90
2018-04-18T04:47:40.311Z,99.90
2018-04-18T04:50:06.742Z,99.90
2018-04-18T04:52:33.162Z,99.90
2018-04-18T04:54:59.624Z,99.90
2018-04-18T04:57:26.802Z,99.90
2018-04-18T04:59:53.229Z,99.90
2018-04-18T05:02:19.645Z,99.90
2018-04-18T05:04:46.885Z,99.90
2018-04-18T05:07:13.325Z,99.90
2018-04-18T05:09:39.772Z,99.90
2018-04-18T05:12:06.326Z,99.90
2018-04-18T05:14:32.738Z,99.90
2018-04-18T05:17:00.090Z,99.90
2018-04-18T05:19:26.583Z,99.90
2018-04-18T05:21:53.000Z,99.90
2018-04-18T05:24:19.424Z,99.90
2018-04-18T05:26:45.902Z,99.90
2018-04-18T05:29:12.391Z,94.40
2018-04-18T05:31:38.814Z,92.00
2018-04-18T05:34:05.327Z,87.90
2018-04-18T05:36:32.710Z,68.90
2018-04-18T05:38:59.114Z,68.90
2018-04-18T05:41:26.257Z,59.60
2018-04-18T05:43:52.685Z,59.60
2018-04-18T05:46:19.069Z,57.00
2018-04-18T05:48:45.546Z,54.30
2018-04-18T05:51:12.054Z,52.60
2018-04-18T05:53:38.464Z,49.80
2018-04-18T05:56:04.883Z,48.40
2018-04-18T05:58:31.318Z,46.80
2018-04-18T06:00:57.838Z,45.40
2018-04-18T06:03:24.255Z,44.20
2018-04-18T06:05:50.658Z,43.50
2018-04-18T06:08:17.065Z,43.00
2018-04-18T06:10:43.449Z,43.10
2018-04-18T06:13:09.946Z,43.20
2018-04-18T06:15:36.418Z,43.50
2018-04-18T06:18:03.353Z,43.70
2018-04-18T06:20:29.736Z,44.40
2018-04-18T06:22:56.172Z,45.20
2018-04-18T06:25:22.585Z,45.70
2018-04-18T06:27:49.040Z,46.50
2018-04-18T06:30:15.448Z,47.10
2018-04-18T06:32:41.897Z,47.80
2018-04-18T06:35:08.361Z,48.00
2018-04-18T06:37:34.771Z,48.30
2018-04-18T06:40:01.293Z,49.00
2018-04-18T06:42:28.450Z,49.20
2018-04-18T06:44:54.856Z,49.20
2018-04-18T06:47:21.240Z,49.40
2018-04-18T06:49:47.802Z,49.20
2018-04-18T06:52:14.337Z,49.30
2018-04-18T06:54:41.517Z,49.50
2018-04-18T06:57:08.746Z,49.30
2018-04-18T06:59:35.150Z,49.20
2018-04-18T07:02:01.583Z,49.20
2018-04-18T07:04:28.806Z,48.00
2018-04-18T07:06:55.228Z,48.00
2018-04-18T07:09:21.618Z,47.70
2018-04-18T07:11:48.117Z,47.30
2018-04-18T07:14:14.592Z,45.70
2018-04-18T07:16:41.006Z,45.00
2018-04-18T07:19:07.688Z,44.50
2018-04-18T07:21:34.147Z,43.60
2018-04-18T07:24:00.580Z,43.10
2018-04-18T07:26:27.041Z,41.80
2018-04-18T07:28:53.435Z,40.60
2018-04-18T07:31:19.935Z,40.10
2018-04-18T07:33:46.378Z,38.80
2018-04-18T07:36:12.901Z,38.30
2018-04-18T07:38:41.184Z,36.50
2018-04-18T07:41:07.732Z,36.50
2018-04-18T07:43:34.967Z,35.40
2018-04-18T07:46:01.416Z,35.30
2018-04-18T07:48:28.564Z,34.80
2018-04-18T07:50:54.950Z,34.70
2018-04-18T07:53:21.341Z,34.40
2018-04-18T07:55:48.504Z,33.00
2018-04-18T07:58:14.998Z,33.00
2018-04-18T08:00:42.880Z,30.30
2018-04-18T08:03:09.329Z,30.30
2018-04-18T08:05:35.761Z,28.80
2018-04-18T08:08:02.321Z,28.60
2018-04-18T08:10:28.910Z,27.10
2018-04-18T08:12:56.098Z,25.60
2018-04-18T08:15:22.606Z,25.60
2018-04-18T08:17:49.024Z,25.50
2018-04-18T08:20:15.443Z,25.60
2018-04-18T08:22:42.003Z,24.80
2018-04-18T08:25:09.450Z,23.90
2018-04-18T08:27:36.631Z,23.40
2018-04-18T08:30:03.136Z,23.30
2018-04-18T08:32:29.588Z,22.30
2018-04-18T08:34:56.749Z,22.10
2018-04-18T08:37:23.357Z,22.10
2018-04-18T08:39:50.532Z,22.40
2018-04-18T08:42:17.682Z,21.90
2018-04-18T08:44:44.188Z,21.90
2018-04-18T08:47:10.584Z,21.60
2018-04-18T08:49:37.054Z,21.90
2018-04-18T08:52:03.541Z,22.90
2018-04-18T08:54:32.348Z,25.00
2018-04-18T08:56:58.811Z,25.00
2018-04-18T08:59:26.031Z,28.40
2018-04-18T09:01:52.472Z,28.40
2018-04-18T09:04:18.922Z,30.00
2018-04-18T09:06:45.332Z,32.00
2018-04-18T09:09:18.838Z,33.80
2018-04-18T09:11:45.240Z,36.10
2018-04-18T09:14:11.685Z,36.50
2018-04-18T09:16:38.161Z,38.20
2018-04-18T09:19:05.309Z,40.40
2018-04-18T09:21:31.746Z,40.30
2018-04-18T09:23:58.168Z,41.00
2018-04-18T09:26:24.577Z,40.30
2018-04-18T09:28:50.974Z,39.70
2018-04-18T09:31:17.397Z,38.80
2018-04-18T09:33:44.526Z,40.20
2018-04-18T09:36:12.413Z,41.10
2018-04-18T09:38:39.745Z,41.00
2018-04-18T09:41:06.157Z,41.00
2018-04-18T09:43:32.563Z,41.50
2018-04-18T09:45:59.035Z,41.70
2018-04-18T09:48:25.448Z,42.00
2018-04-18T09:50:51.825Z,42.50
2018-04-18T09:53:18.989Z,42.90
2018-04-18T09:55:46.148Z,42.90
2018-04-18T09:58:12.559Z,42.90
2018-04-18T10:03:42.601Z,43.20
2018-04-18T10:06:09.086Z,42.70
2018-04-18T10:08:35.482Z,42.40
2018-04-18T10:11:01.920Z,43.10
2018-04-18T10:13:28.338Z,42.80
2018-04-18T10:15:55.475Z,42.90
2018-04-18T10:18:21.895Z,42.90
2018-04-18T10:20:48.304Z,41.70
2018-04-18T10:23:14.704Z,41.10
2018-04-18T10:25:41.133Z,41.20
2018-04-18T10:28:07.561Z,41.50
2018-04-18T10:30:33.977Z,41.60
2018-04-18T10:33:01.129Z,41.20
2018-04-18T10:35:28.383Z,41.60
2018-04-18T10:37:54.870Z,41.50
2018-04-18T10:40:21.282Z,41.20
2018-04-18T10:42:47.699Z,41.00
2018-04-18T10:45:14.105Z,41.60
2018-04-18T10:47:40.477Z,39.90
2018-04-18T10:50:07.265Z,40.70
2018-04-18T10:52:33.653Z,40.90
2018-04-18T10:55:00.059Z,40.50
2018-04-18T10:57:27.290Z,39.00
2018-04-18T10:59:53.767Z,39.00
2018-04-18T11:02:20.200Z,39.60
2018-04-18T11:04:46.638Z,36.90
2018-04-18T11:07:13.127Z,36.80
2018-04-18T11:09:39.593Z,37.60
2018-04-18T11:12:06.029Z,37.20
2018-04-18T11:14:32.575Z,37.70
2018-04-18T11:16:58.988Z,36.90
2018-04-18T11:19:25.477Z,36.90
2018-04-18T11:21:53.357Z,39.90
2018-04-18T11:24:19.830Z,39.80
2018-04-18T11:26:46.297Z,40.10
2018-04-18T11:29:12.754Z,40.30
2018-04-18T11:31:39.158Z,41.20
2018-04-18T11:34:05.574Z,40.00
2018-04-18T11:36:31.968Z,40.00
2018-04-18T11:38:59.101Z,39.40
2018-04-18T11:41:26.310Z,36.90
2018-04-18T11:43:52.718Z,36.90
2018-04-18T11:46:19.126Z,39.30
2018-04-18T11:48:45.557Z,37.30
2018-04-18T11:51:11.967Z,35.60
2018-04-18T11:53:38.524Z,37.90
2018-04-18T11:56:04.968Z,38.90
2018-04-18T11:58:32.122Z,37.90
2018-04-18T12:00:58.658Z,37.90
2018-04-18T12:03:25.156Z,38.10
2018-04-18T12:05:51.568Z,38.30
2018-04-18T12:08:17.977Z,37.70
2018-04-18T12:10:45.164Z,37.40
2018-04-18T12:13:11.591Z,37.30
2018-04-18T12:15:37.977Z,37.40
2018-04-18T12:18:05.141Z,38.40
2018-04-18T12:20:32.273Z,38.10
2018-04-18T12:22:58.704Z,38.10
2018-04-18T12:25:25.187Z,38.00
2018-04-18T12:27:51.592Z,37.50
2018-04-18T12:30:17.998Z,37.70
2018-04-18T12:32:45.179Z,38.00
2018-04-18T12:35:11.581Z,38.00
2018-04-18T12:37:38.717Z,37.40
2018-04-18T12:40:05.155Z,37.40
2018-04-18T12:42:31.549Z,37.70
2018-04-18T12:44:58.745Z,38.60
2018-04-18T12:47:25.198Z,38.20
2018-04-18T12:49:51.590Z,38.80
2018-04-18T12:52:18.082Z,39.20
2018-04-18T12:54:44.533Z,39.40
2018-04-18T12:57:10.937Z,39.30
2018-04-18T12:59:37.394Z,39.30
2018-04-18T13:02:03.813Z,39.50
2018-04-18T13:04:30.229Z,39.60
2018-04-18T13:06:57.365Z,39.30
2018-04-18T13:09:24.570Z,39.00
2018-04-18T13:11:50.990Z,39.00
2018-04-18T13:14:17.405Z,38.70
2018-04-18T13:16:43.857Z,38.90
2018-04-18T13:19:10.249Z,39.30
2018-04-18T13:21:36.699Z,39.60
2018-04-18T13:24:03.141Z,39.20
2018-04-18T13:26:29.574Z,39.30
2018-04-18T13:28:55.966Z,39.30
2018-04-18T13:31:22.390Z,40.20
2018-04-18T13:33:48.784Z,39.20
2018-04-18T13:36:15.200Z,39.30
2018-04-18T13:38:41.677Z,39.30
2018-04-18T13:41:08.231Z,39.60
2018-04-18T13:43:34.665Z,39.50
2018-04-18T13:46:01.129Z,38.90
2018-04-18T13:48:27.872Z,39.10
2018-04-18T13:50:55.038Z,38.30
2018-04-18T13:53:21.496Z,38.90
2018-04-18T13:55:48.065Z,38.50
2018-04-18T13:58:14.475Z,39.00
2018-04-18T14:00:41.027Z,38.60
2018-04-18T14:03:07.411Z,38.00
2018-04-18T14:05:33.814Z,38.20
2018-04-18T14:08:00.989Z,37.90
2018-04-18T14:10:27.361Z,37.90
2018-04-18T14:12:53.745Z,38.30
2018-04-18T14:15:20.216Z,38.70
2018-04-18T14:17:46.621Z,38.80
2018-04-18T14:20:13.173Z,40.40
2018-04-18T14:22:39.617Z,39.70
2018-04-18T14:25:06.025Z,39.40
2018-04-18T14:27:32.417Z,38.90
2018-04-18T14:29:59.629Z,39.80
2018-04-18T14:32:26.035Z,39.70
2018-04-18T14:34:52.447Z,38.40
2018-04-18T14:37:19.609Z,37.20
2018-04-18T14:39:46.043Z,37.10
2018-04-18T14:42:13.225Z,37.40
2018-04-18T14:44:39.765Z,37.40
2018-04-18T14:47:06.232Z,38.90
2018-04-18T14:49:32.657Z,39.90
2018-04-18T14:51:59.913Z,39.10
2018-04-18T14:54:26.313Z,39.10
2018-04-18T14:56:52.831Z,38.90
2018-04-18T14:59:19.280Z,39.80
2018-04-18T15:01:45.703Z,40.00
2018-04-18T15:04:12.194Z,39.70
2018-04-18T15:06:38.678Z,39.00
2018-04-18T15:09:05.969Z,37.80
2018-04-18T15:11:32.417Z,37.80
2018-04-18T15:13:59.583Z,37.80
2018-04-18T15:16:26.761Z,36.90
2018-04-18T15:18:53.238Z,36.80
2018-04-18T15:21:19.859Z,37.30
2018-04-18T15:23:46.262Z,37.70
2018-04-18T15:26:12.724Z,37.60
2018-04-18T15:28:39.170Z,38.10
2018-04-18T15:31:06.335Z,39.50
2018-04-18T15:33:32.732Z,39.40
2018-04-18T15:35:59.189Z,39.60
2018-04-18T15:38:25.599Z,41.20
2018-04-18T15:40:52.815Z,41.20
2018-04-18T15:43:19.279Z,41.20
2018-04-18T15:45:45.713Z,41.10
2018-04-18T15:48:12.172Z,41.40
2018-04-18T15:50:38.596Z,41.50
2018-04-18T15:53:05.066Z,41.90
2018-04-18T15:55:31.632Z,42.10
2018-04-18T15:57:58.082Z,42.00
2018-04-18T16:00:24.485Z,42.30
2018-04-18T16:02:50.862Z,42.60
2018-04-18T16:05:17.438Z,42.00
2018-04-18T16:07:44.599Z,43.00
2018-04-18T16:10:11.111Z,42.30
2018-04-18T16:12:38.339Z,43.00
2018-04-18T16:15:04.789Z,42.90
2018-04-18T16:17:31.974Z,42.10
2018-04-18T16:19:58.476Z,42.10
2018-04-18T16:22:25.646Z,38.30
2018-04-18T16:24:52.818Z,36.40
2018-04-18T16:27:19.288Z,36.40
2018-04-18T16:29:45.718Z,35.60
2018-04-18T16:32:12.217Z,34.90
2018-04-18T16:34:38.660Z,33.20
2018-04-18T16:37:05.182Z,33.30
2018-04-18T16:39:31.630Z,33.50
2018-04-18T16:41:58.117Z,34.30
2018-04-18T16:44:25.311Z,33.30
2018-04-18T16:46:51.721Z,33.20
2018-04-18T16:49:18.189Z,32.80
2018-04-18T16:51:44.624Z,31.90
2018-04-18T16:54:11.077Z,31.70
2018-04-18T16:56:38.362Z,31.80
2018-04-18T16:59:04.810Z,31.60
2018-04-18T17:01:31.317Z,31.10
2018-04-18T17:03:58.587Z,29.60
2018-04-18T17:06:25.076Z,29.60
2018-04-18T17:08:51.524Z,29.60
2018-04-18T17:11:18.070Z,28.90
2018-04-18T17:13:44.484Z,29.10
2018-04-18T17:16:10.903Z,29.50
2018-04-18T17:18:37.327Z,28.90
2018-04-18T17:21:03.708Z,28.70
2018-04-18T17:23:30.107Z,29.00
2018-04-18T17:25:56.549Z,29.30
2018-04-18T17:28:22.991Z,29.50
2018-04-18T17:30:50.160Z,30.10
2018-04-18T17:33:16.583Z,30.00
2018-04-18T17:35:43.116Z,30.30
2018-04-18T17:38:09.549Z,30.40
2018-04-18T17:40:36.004Z,30.50
2018-04-18T17:43:03.235Z,31.30
2018-04-18T17:45:29.689Z,31.40
2018-04-18T17:47:56.869Z,31.70
2018-04-18T17:50:23.336Z,31.70
2018-04-18T17:52:49.770Z,32.00
2018-04-18T17:55:16.234Z,32.30
2018-04-18T17:57:43.394Z,32.80
2018-04-18T18:00:09.826Z,32.80
2018-04-18T18:02:36.322Z,33.30
2018-04-18T18:05:02.826Z,33.10
2018-04-18T18:07:29.353Z,33.40
2018-04-18T18:09:55.842Z,33.30
2018-04-18T18:12:23.084Z,33.90
2018-04-18T18:14:49.476Z,33.90
2018-04-18T18:17:15.907Z,34.20
2018-04-18T18:19:42.442Z,34.40
2018-04-18T18:22:08.926Z,34.70
2018-04-18T18:24:36.074Z,35.10
2018-04-18T18:27:02.919Z,35.30
2018-04-18T18:29:29.373Z,35.50
2018-04-18T18:31:55.889Z,35.80
2018-04-18T18:34:23.069Z,37.00
2018-04-18T18:36:50.255Z,36.60
2018-04-18T18:39:16.737Z,36.50
2018-04-18T18:41:43.137Z,36.90
2018-04-18T18:44:09.564Z,37.40
2018-04-18T18:46:36.011Z,37.70
2018-04-18T18:49:02.431Z,37.80
2018-04-18T18:51:28.906Z,38.60
2018-04-18T18:53:56.162Z,38.70
2018-04-18T18:56:23.366Z,38.90
2018-04-18T18:58:49.762Z,38.90
2018-04-18T19:01:16.300Z,39.20
2018-04-18T19:03:42.784Z,39.30
2018-04-18T19:06:09.288Z,39.70
2018-04-18T19:08:35.714Z,39.60
2018-04-18T19:11:02.182Z,39.90
2018-04-18T19:13:28.598Z,40.40
2018-04-18T19:15:55.043Z,40.60
2018-04-18T19:18:21.451Z,41.70
2018-04-18T19:20:48.667Z,41.50
2018-04-18T19:23:15.189Z,41.70
2018-04-18T19:25:41.643Z,41.80
2018-04-18T19:28:08.811Z,42.40
2018-04-18T19:30:35.262Z,42.40
2018-04-18T19:33:01.700Z,43.60
2018-04-18T19:35:28.118Z,43.20
2018-04-18T19:37:54.580Z,43.10
2018-04-18T19:40:21.010Z,43.60
2018-04-18T19:42:47.449Z,43.60
2018-04-18T19:45:13.916Z,43.60
2018-04-18T19:47:41.063Z,44.00
2018-04-18T19:50:07.453Z,44.00
2018-04-18T19:52:33.902Z,44.60
2018-04-18T19:55:00.301Z,44.80
2018-04-18T19:57:26.728Z,45.10
2018-04-18T19:59:53.193Z,44.20
2018-04-18T20:02:19.608Z,43.90
2018-04-18T20:04:46.051Z,44.70
2018-04-18T20:07:12.479Z,44.50
2018-04-18T20:09:38.886Z,44.80
2018-04-18T20:12:05.332Z,45.00
2018-04-18T20:14:31.775Z,46.80
2018-04-18T20:16:58.220Z,45.50
2018-04-18T20:19:24.621Z,44.80
2018-04-18T20:21:51.087Z,45.90
2018-04-18T20:24:17.493Z,46.40
2018-04-18T20:26:43.886Z,46.20
2018-04-18T20:29:11.077Z,45.90
2018-04-18T20:31:38.211Z,46.30
2018-04-18T20:34:04.669Z,46.30
2018-04-18T20:36:37.141Z,46.80
2018-04-18T20:39:03.624Z,46.90
2018-04-18T20:41:30.037Z,47.50
2018-04-18T20:43:56.483Z,47.90
2018-04-18T20:46:22.949Z,50.10
2018-04-18T20:48:49.412Z,50.40
2018-04-18T20:51:15.849Z,49.70
2018-04-18T20:53:42.258Z,50.00
2018-04-18T20:56:08.684Z,50.30
2018-04-18T20:58:35.877Z,52.30
2018-04-18T21:01:02.316Z,52.30
2018-04-18T21:03:28.718Z,52.40
2018-04-18T21:05:55.186Z,52.90
2018-04-18T21:08:21.770Z,53.00
2018-04-18T21:10:50.064Z,54.50
2018-04-18T21:13:16.494Z,54.50
2018-04-18T21:15:42.952Z,54.20
2018-04-18T21:18:09.410Z,54.10
2018-04-18T21:20:35.915Z,54.10
2018-04-18T21:23:02.369Z,54.80
2018-04-18T21:25:28.807Z,55.10
2018-04-18T21:27:55.281Z,55.70
2018-04-18T21:30:21.689Z,55.90
2018-04-18T21:32:48.127Z,56.20
2018-04-18T21:35:14.598Z,56.70
2018-04-18T21:37:41.093Z,57.90
2018-04-18T21:40:23.199Z,57.90
2018-04-18T21:42:49.666Z,57.80
2018-04-18T21:45:16.086Z,58.20
2018-04-18T21:47:42.516Z,58.20
2018-04-18T21:50:09.667Z,59.20
2018-04-18T21:52:36.071Z,59.20
2018-04-18T21:55:02.500Z,59.60
2018-04-18T21:57:28.925Z,59.90
2018-04-18T21:59:55.391Z,60.50
2018-04-18T22:02:21.852Z,61.00
2018-04-18T22:04:48.254Z,61.20
2018-04-18T22:07:15.406Z,62.10
2018-04-18T22:09:42.608Z,62.70
2018-04-18T22:12:09.047Z,62.70
2018-04-18T22:14:35.459Z,63.40
2018-04-18T22:17:01.967Z,64.20
2018-04-18T22:19:28.335Z,65.10
2018-04-18T22:21:54.777Z,65.90
2018-04-18T22:24:21.290Z,67.00
2018-04-18T22:26:47.718Z,67.80
2018-04-18T22:29:14.205Z,69.10
2018-04-18T22:31:40.617Z,70.50
2018-04-18T22:34:07.051Z,72.10
2018-04-18T22:36:33.508Z,73.90
2018-04-18T22:38:59.912Z,75.80
2018-04-18T22:41:26.588Z,77.40
2018-04-18T22:43:52.976Z,78.90
2018-04-18T22:46:19.419Z,80.30
2018-04-18T22:48:45.818Z,81.40
2018-04-18T22:51:12.308Z,83.60
2018-04-18T22:53:38.783Z,86.70
2018-04-18T22:56:05.170Z,89.20
2018-04-18T22:58:31.574Z,90.60
2018-04-18T23:00:58.099Z,91.70
2018-04-18T23:03:24.506Z,93.00
2018-04-18T23:05:51.640Z,95.30
2018-04-18T23:08:18.162Z,95.20
2018-04-18T23:10:44.704Z,96.70
2018-04-18T23:13:11.111Z,98.10
2018-04-18T23:15:38.333Z,99.90
2018-04-18T23:18:04.741Z,99.90
2018-04-18T23:20:31.919Z,99.90
2018-04-18T23:22:58.380Z,99.90
2018-04-18T23:25:24.780Z,99.90
2018-04-18T23:27:51.190Z,99.90
2018-04-18T23:30:18.346Z,99.90
2018-04-18T23:32:45.490Z,99.90
2018-04-18T23:35:11.889Z,99.90
2018-04-18T23:37:38.433Z,99.90
2018-04-18T23:40:04.828Z,99.90
2018-04-18T23:42:31.229Z,99.90
2018-04-18T23:44:57.666Z,99.90
2018-04-18T23:47:24.096Z,99.90
2018-04-18T23:49:50.507Z,99.90
2018-04-18T23:52:17.744Z,99.90
2018-04-18T23:54:44.132Z,99.90
2018-04-18T23:57:10.525Z,99.90
2018-04-18T23:59:37.702Z,99.90
